createdAt,value
2023-04-22T00:00:21.391Z,5.20
2023-04-22T00:10:24.892Z,5.10
2023-04-22T00:20:26.960Z,5.10
2023-04-22T00:30:30.302Z,5.10
2023-04-22T00:40:32.312Z,4.90
2023-04-22T00:50:35.743Z,4.80
2023-04-22T01:00:37.925Z,4.80
2023-04-22T01:10:41.920Z,4.80
2023-04-22T01:20:43.895Z,5.00
2023-04-22T01:30:49.112Z,5.00
2023-04-22T01:40:51.733Z,5.00
2023-04-22T01:50:55.117Z,5.00
2023-04-22T02:00:57.056Z,4.90
2023-04-22T02:11:00.371Z,5.00
2023-04-22T02:21:02.400Z,5.00
2023-04-22T02:31:05.954Z,5.10
2023-04-22T02:41:07.904Z,5.20
2023-04-22T02:51:11.664Z,5.30
2023-04-22T03:01:13.632Z,5.30
2023-04-22T03:11:16.992Z,5.20
2023-04-22T03:21:18.912Z,5.30
2023-04-22T03:31:22.291Z,5.20
2023-04-22T03:41:24.290Z,5.20
2023-04-22T03:51:27.618Z,5.00
2023-04-22T04:01:29.556Z,5.00
2023-04-22T04:11:32.880Z,4.90
2023-04-22T04:21:34.821Z,5.00
2023-04-22T04:31:38.508Z,5.10
2023-04-22T04:41:40.538Z,5.20
2023-04-22T04:51:43.817Z,5.20
2023-04-22T05:01:45.756Z,5.20
2023-04-22T05:11:49.083Z,5.30
2023-04-22T05:21:51.075Z,5.40
2023-04-22T05:31:54.454Z,5.40
2023-04-22T05:41:56.427Z,5.60
2023-04-22T05:51:59.743Z,5.70
2023-04-22T06:02:01.814Z,5.80
2023-04-22T06:12:05.433Z,6.10
2023-04-22T06:22:07.339Z,6.30
2023-04-22T06:32:10.623Z,6.70
2023-04-22T06:42:12.561Z,6.90
2023-04-22T06:52:15.890Z,7.00
2023-04-22T07:02:18.309Z,7.50
2023-04-22T07:12:21.636Z,7.90
2023-04-22T07:22:23.563Z,8.10
2023-04-22T07:32:26.908Z,8.40
2023-04-22T07:42:28.988Z,8.60
2023-04-22T07:52:32.374Z,8.90
2023-04-22T08:02:34.588Z,9.50
2023-04-22T08:12:37.930Z,10.20
2023-04-22T08:22:39.856Z,10.20
2023-04-22T08:32:43.216Z,10.60
2023-04-22T08:42:45.305Z,11.80
2023-04-22T08:52:49.023Z,12.20
2023-04-22T09:02:51.797Z,12.40
2023-04-22T09:12:55.451Z,12.30
2023-04-22T09:23:03.194Z,12.20
2023-04-22T09:33:07.613Z,12.60
2023-04-22T09:43:12.885Z,12.90
2023-04-22T09:53:17.475Z,12.90
2023-04-22T10:03:20.045Z,13.80
2023-04-22T10:13:23.425Z,15.70
2023-04-22T10:23:25.920Z,16.90
2023-04-22T10:33:39.496Z,17.40
2023-04-22T10:44:05.703Z,17.40
2023-04-22T10:54:47.645Z,17.50
2023-04-22T11:04:50.147Z,19.30
2023-04-22T11:14:55.865Z,18.90
2023-04-22T11:24:58.980Z,18.40
2023-04-22T11:35:07.237Z,18.20
2023-04-22T11:45:10.197Z,17.80
2023-04-22T11:55:15.218Z,18.80
2023-04-22T12:05:17.329Z,17.30
2023-04-22T12:15:21.628Z,15.90
2023-04-22T12:25:23.726Z,15.50
2023-04-22T12:35:27.158Z,16.40
2023-04-22T12:45:29.129Z,16.90
2023-04-22T12:55:34.093Z,16.40
2023-04-22T13:05:36.070Z,15.40
2023-04-22T13:15:39.469Z,15.00
2023-04-22T13:25:41.452Z,14.70
2023-04-22T13:35:45.170Z,14.40
2023-04-22T13:45:47.228Z,14.10
2023-04-22T13:55:50.663Z,13.90
2023-04-22T14:05:52.613Z,13.60
2023-04-22T14:15:55.985Z,13.50
2023-04-22T14:25:58.166Z,13.50
2023-04-22T14:36:01.460Z,13.50
2023-04-22T14:46:03.737Z,14.40
2023-04-22T14:56:07.504Z,14.90
2023-04-22T15:06:09.770Z,15.40
2023-04-22T15:16:13.213Z,16.30
2023-04-22T15:26:15.194Z,16.60
2023-04-22T15:36:18.528Z,16.40
2023-04-22T15:46:21.203Z,16.20
2023-04-22T15:56:25.544Z,15.50
2023-04-22T16:06:27.472Z,16.20
2023-04-22T16:16:32.082Z,16.40
2023-04-22T16:26:34.315Z,16.50
2023-04-22T16:36:37.653Z,16.40
2023-04-22T16:46:39.632Z,15.80
2023-04-22T16:56:42.934Z,15.90
2023-04-22T17:06:44.907Z,15.70
2023-04-22T17:16:48.235Z,15.30
2023-04-22T17:26:50.143Z,15.20
2023-04-22T17:36:53.567Z,14.80
2023-04-22T17:46:57.754Z,14.50
2023-04-22T17:57:06.294Z,14.10
2023-04-22T18:07:08.246Z,13.70
2023-04-22T18:17:11.622Z,13.40
2023-04-22T18:27:13.577Z,13.20
2023-04-22T18:37:16.991Z,13.20
2023-04-22T18:48:11.285Z,13.20
2023-04-22T18:58:36.795Z,13.10
2023-04-22T19:08:39.081Z,13.00
2023-04-22T19:18:42.395Z,12.70
2023-04-22T19:28:44.344Z,12.50
2023-04-22T19:38:47.664Z,12.30
2023-04-22T19:48:50.165Z,12.10
2023-04-22T19:58:53.714Z,12.00
2023-04-22T20:08:57.192Z,11.80
2023-04-22T20:19:00.876Z,11.80
2023-04-22T20:29:03.070Z,11.70
2023-04-22T20:39:06.657Z,11.50
2023-04-22T20:49:08.666Z,11.30
2023-04-22T20:59:12.048Z,11.30
2023-04-22T21:09:14.330Z,11.20
2023-04-22T21:19:18.496Z,11.20
2023-04-22T21:29:20.983Z,10.90
2023-04-22T21:39:24.306Z,10.80
2023-04-22T21:49:26.241Z,10.60
2023-04-22T21:59:29.625Z,10.60
2023-04-22T22:09:31.590Z,10.40
2023-04-22T22:19:34.861Z,10.50
2023-04-22T22:29:36.834Z,10.50
2023-04-22T22:39:42.444Z,10.50
2023-04-22T22:49:45.038Z,10.50
2023-04-22T22:59:48.370Z,10.50
2023-04-22T23:09:50.317Z,10.50
2023-04-22T23:19:54.992Z,10.60
2023-04-22T23:29:57.539Z,10.70
2023-04-22T23:40:00.887Z,10.70
2023-04-22T23:50:02.923Z,10.80
